South Yarmouth, MA (02664)

2:04 AM EST on December 25, 2014 (GMT -0500)
Hazelwood Road | Change Station
CLOSE
Current Station
Personal Weather Station
Location: South Dennis, MA
Elevation: 41 ft
Nearby Weather Stations

Elev 41 ft 41.71 °N, 70.18 °W | Updated 2 minutes ago

Fog
Fog
56.9 °F
Feels Like 56.9 °F
N
4.0
Wind Variable Wind from SSE
Gusts 11.0 mph

Today
High -- | Low -- °F
--% Chance of Precip.
Yesterday
High -- | Low -- °F
Precip. -- in
7:06 AM 4:15 PM
Waxing Crescent, 14% visible
Pressure 29.59 in
Visibility 0.5 miles
Clouds
Dew Point 57 °F
Humidity 99%
Rainfall 0.00 in
Snow Depth Not available.
UV 0.0 out of 12
Pollen .10 out of 12
Air Quality Not available.
Flu Activity Not available.
METAR KHYA 250656Z 20014G20KT 1/2SM FG VV002 13/13 A2959 RMK AO2 RAB08E17 SLP020 P0001 T01280128

More Conditions Fewer Conditions

Pressure 29.59 in
Visibility 0.5 miles
Clouds
Dew Point 57 °F
Humidity 99%
Rainfall 0.00 in
Snow Depth Not available.
UV 0.0 out of 12
Pollen .10 out of 12
Air Quality Not available.
Flu Activity Not available.
METAR KHYA 250656Z 20014G20KT 1/2SM FG VV002 13/13 A2959 RMK AO2 RAB08E17 SLP020 P0001 T01280128

More Conditions Fewer Conditions

10-Day Weather Forecast

Almanac

Astronomy

Dec. 25, 2014 Rise Set
Actual Time
Civil Twilight
Nautical Twilight
Astronomical Twilight
Moon
Length of Visible Light
Length of Day
Tomorrow will be .
, % of the Moon is Illuminated

Today's Extremes

State Highs State Lows

Community

WunderPhotos

Upload Photos

1,780,250 photos uploaded!

WunderBlogs® & News

Nearby

Air Quality

  Air Quality AQ Index Pollutant
Not available.

Snow Depth

Station Depth Elevation

Earthquake Activity

City Distance Mag. Time & Date
Minimum magnitude displayed is 2.5.

Coastal Water Temperatures

Place Temperature

Nearby Weather Stations